createdAt,value
2023-05-01T00:01:06.376Z,10.20
2023-05-01T00:06:01.320Z,10.10
2023-05-01T00:08:30.677Z,10.10
2023-05-01T00:11:02.135Z,10.00
2023-05-01T00:13:29.177Z,10.00
2023-05-01T00:15:58.358Z,10.00
2023-05-01T00:18:25.201Z,9.90
2023-05-01T00:20:52.039Z,9.80
2023-05-01T00:23:20.938Z,9.80
2023-05-01T00:25:47.729Z,9.70
2023-05-01T00:28:20.143Z,9.70
2023-05-01T00:30:47.199Z,9.70
2023-05-01T00:33:14.080Z,9.80
2023-05-01T00:35:43.518Z,9.80
2023-05-01T00:38:10.386Z,9.80
2023-05-01T00:40:46.750Z,9.80
2023-05-01T00:43:13.611Z,9.80
2023-05-01T00:45:42.215Z,9.80
2023-05-01T00:48:09.537Z,9.80
2023-05-01T00:50:36.437Z,9.80
2023-05-01T00:53:04.107Z,9.80
2023-05-01T00:55:33.888Z,9.80
2023-05-01T00:58:01.024Z,9.80
2023-05-01T01:00:29.540Z,9.80
2023-05-01T01:02:56.582Z,9.80
2023-05-01T01:05:25.891Z,9.80
2023-05-01T01:07:59.435Z,9.80
2023-05-01T01:10:53.074Z,9.70
2023-05-01T01:13:35.618Z,9.80
2023-05-01T01:16:24.313Z,9.80
2023-05-01T01:18:56.586Z,9.70
2023-05-01T01:21:27.518Z,9.70
2023-05-01T01:24:26.215Z,9.70
2023-05-01T01:27:11.115Z,9.70
2023-05-01T01:29:47.316Z,9.70
2023-05-01T01:32:23.553Z,9.70
2023-05-01T01:35:01.035Z,9.60
2023-05-01T01:37:42.113Z,9.60
2023-05-01T01:40:11.941Z,9.60
2023-05-01T01:42:43.517Z,9.60
2023-05-01T01:45:14.748Z,9.50
2023-05-01T01:47:44.088Z,9.50
2023-05-01T01:50:10.956Z,9.40
2023-05-01T01:52:38.574Z,9.40
2023-05-01T01:55:12.703Z,9.40
2023-05-01T01:57:40.648Z,9.40
2023-05-01T02:00:08.999Z,9.40
2023-05-01T02:02:41.090Z,9.30
2023-05-01T02:05:08.793Z,9.20
2023-05-01T02:07:36.842Z,9.20
2023-05-01T02:10:06.786Z,9.20
2023-05-01T02:12:33.552Z,9.10
2023-05-01T02:15:00.329Z,9.10
2023-05-01T02:17:28.228Z,9.10
2023-05-01T02:19:55.726Z,9.00
2023-05-01T02:22:22.927Z,9.00
2023-05-01T02:24:49.693Z,8.90
2023-05-01T02:27:24.012Z,9.00
2023-05-01T02:29:58.769Z,8.90
2023-05-01T02:32:26.405Z,9.00
2023-05-01T02:34:53.242Z,9.00
2023-05-01T02:37:24.764Z,8.90
2023-05-01T02:39:51.497Z,8.90
2023-05-01T02:42:18.296Z,8.90
2023-05-01T02:45:08.188Z,8.80
2023-05-01T02:47:37.302Z,8.80
2023-05-01T02:50:04.467Z,8.80
2023-05-01T02:52:31.395Z,8.70
2023-05-01T02:55:00.437Z,8.70
2023-05-01T02:57:27.339Z,8.80
2023-05-01T02:59:54.387Z,8.70
2023-05-01T03:02:21.320Z,8.70
2023-05-01T03:04:50.401Z,8.60
2023-05-01T03:07:17.657Z,8.70
2023-05-01T03:09:44.425Z,8.50
2023-05-01T03:12:13.671Z,8.50
2023-05-01T03:14:40.489Z,8.40
2023-05-01T03:17:07.261Z,8.40
2023-05-01T03:19:37.432Z,8.40
2023-05-01T03:22:06.760Z,8.30
2023-05-01T03:24:33.691Z,8.30
2023-05-01T03:27:00.432Z,8.30
2023-05-01T03:29:27.198Z,8.20
2023-05-01T03:31:53.988Z,8.20
2023-05-01T03:34:23.117Z,8.20
2023-05-01T03:36:52.026Z,8.00
2023-05-01T03:39:21.423Z,8.10
2023-05-01T03:41:50.634Z,8.10
2023-05-01T03:44:17.380Z,8.00
2023-05-01T03:46:44.596Z,8.00
2023-05-01T03:49:13.606Z,7.90
2023-05-01T03:51:42.499Z,7.90
2023-05-01T03:54:11.492Z,7.90
2023-05-01T03:56:40.486Z,7.90
2023-05-01T03:59:12.418Z,7.90
2023-05-01T04:01:41.500Z,7.90
2023-05-01T04:04:08.636Z,7.90
2023-05-01T04:06:36.261Z,8.00
2023-05-01T04:09:03.588Z,8.00
2023-05-01T04:11:32.465Z,8.00
2023-05-01T04:14:01.817Z,8.10
2023-05-01T04:16:33.337Z,8.10
2023-05-01T04:19:00.161Z,8.10
2023-05-01T04:21:26.901Z,8.10
2023-05-01T04:23:56.257Z,8.00
2023-05-01T04:26:23.730Z,7.90
2023-05-01T04:28:50.978Z,7.90
2023-05-01T04:31:17.794Z,7.90
2023-05-01T04:33:46.949Z,8.00
2023-05-01T04:36:13.810Z,8.10
2023-05-01T04:38:40.538Z,8.10
2023-05-01T04:41:09.998Z,8.20
2023-05-01T04:43:38.951Z,8.30
2023-05-01T04:46:08.207Z,8.30
2023-05-01T04:48:37.209Z,8.30
2023-05-01T04:51:04.173Z,8.40
2023-05-01T04:53:32.052Z,8.50
2023-05-01T04:55:58.897Z,8.50
2023-05-01T04:58:27.814Z,8.60
2023-05-01T05:00:56.996Z,8.70
2023-05-01T05:03:23.972Z,8.80
2023-05-01T05:05:50.891Z,8.90
2023-05-01T05:08:17.658Z,9.00
2023-05-01T05:10:44.495Z,9.10
2023-05-01T05:13:15.793Z,9.20
2023-05-01T05:15:43.023Z,9.30
2023-05-01T05:18:09.869Z,9.40
2023-05-01T05:20:39.804Z,9.40
2023-05-01T05:23:08.306Z,9.50
2023-05-01T05:25:35.382Z,9.60
2023-05-01T05:28:02.214Z,9.80
2023-05-01T05:30:28.994Z,10.00
2023-05-01T05:32:55.795Z,10.30
2023-05-01T05:35:22.632Z,10.60
2023-05-01T05:37:52.111Z,10.70
2023-05-01T05:40:19.486Z,10.70
2023-05-01T05:42:46.245Z,11.00
2023-05-01T05:45:13.041Z,11.20
2023-05-01T05:47:39.907Z,11.30
2023-05-01T05:50:07.489Z,11.30
2023-05-01T05:52:34.551Z,11.20
2023-05-01T05:55:08.365Z,11.20
2023-05-01T05:57:39.905Z,11.20
2023-05-01T06:00:09.327Z,11.50
2023-05-01T06:02:36.380Z,11.70
2023-05-01T06:05:03.734Z,11.90
2023-05-01T06:07:30.628Z,12.20
2023-05-01T06:10:04.221Z,12.70
2023-05-01T06:12:31.896Z,13.10
2023-05-01T06:14:59.365Z,13.70
2023-05-01T06:17:28.567Z,14.30
2023-05-01T06:19:56.122Z,14.60
2023-05-01T06:22:28.082Z,14.40
2023-05-01T06:24:55.624Z,14.10
2023-05-01T06:27:24.503Z,13.60
2023-05-01T06:29:51.266Z,13.00
2023-05-01T06:32:18.003Z,12.60
2023-05-01T06:34:44.931Z,12.10
2023-05-01T06:37:12.099Z,11.90
2023-05-01T06:39:38.866Z,11.70
2023-05-01T06:42:05.741Z,11.70
2023-05-01T06:44:34.658Z,11.50
2023-05-01T06:47:01.915Z,11.40
2023-05-01T06:49:28.836Z,11.40
2023-05-01T06:51:58.188Z,11.30
2023-05-01T06:54:24.975Z,11.30
2023-05-01T06:56:51.820Z,11.30
2023-05-01T06:59:18.590Z,11.20
2023-05-01T07:01:45.521Z,11.20
2023-05-01T07:04:12.367Z,11.20
2023-05-01T07:06:39.185Z,11.30
2023-05-01T07:09:06.540Z,11.30
2023-05-01T07:11:35.819Z,11.30
2023-05-01T07:14:04.786Z,11.30
2023-05-01T07:16:32.379Z,11.30
2023-05-01T07:18:59.212Z,11.30
2023-05-01T07:21:28.423Z,11.40
2023-05-01T07:23:55.214Z,11.40
2023-05-01T07:26:25.817Z,11.40
2023-05-01T07:28:54.801Z,11.40
2023-05-01T07:31:22.837Z,11.40
2023-05-01T07:33:50.332Z,11.50
2023-05-01T07:36:20.456Z,11.60
2023-05-01T07:38:47.491Z,11.60
2023-05-01T07:41:17.146Z,11.60
2023-05-01T07:43:46.121Z,11.70
2023-05-01T07:46:12.994Z,11.70
2023-05-01T07:48:40.224Z,11.80
2023-05-01T07:51:09.262Z,11.80
2023-05-01T07:53:36.075Z,11.80
2023-05-01T07:56:10.045Z,11.80
2023-05-01T07:58:37.249Z,11.90
2023-05-01T08:01:04.084Z,12.00
2023-05-01T08:03:31.440Z,11.90
2023-05-01T08:05:58.519Z,11.80
2023-05-01T08:08:25.339Z,11.90
2023-05-01T08:10:57.610Z,11.90
2023-05-01T08:13:24.362Z,11.90
2023-05-01T08:15:51.224Z,12.00
2023-05-01T08:18:21.211Z,12.10
2023-05-01T08:20:50.789Z,12.20
2023-05-01T08:23:19.852Z,12.20
2023-05-01T08:25:51.719Z,12.20
2023-05-01T08:28:20.850Z,12.00
2023-05-01T08:30:49.328Z,12.00
2023-05-01T08:33:16.562Z,12.10
2023-05-01T08:35:43.387Z,12.20
2023-05-01T08:38:13.056Z,12.20
2023-05-01T08:40:41.542Z,12.30
2023-05-01T08:43:08.328Z,12.40
2023-05-01T08:45:36.278Z,12.40
2023-05-01T08:48:06.005Z,12.40
2023-05-01T08:50:35.071Z,12.40
2023-05-01T08:53:06.444Z,12.50
2023-05-01T08:55:33.935Z,12.50
2023-05-01T08:58:00.779Z,12.60
2023-05-01T09:00:29.677Z,12.60
2023-05-01T09:02:56.472Z,12.50
2023-05-01T09:05:23.245Z,12.50
2023-05-01T09:07:50.071Z,12.60
2023-05-01T09:10:18.536Z,12.70
2023-05-01T09:12:47.105Z,12.80
2023-05-01T09:15:16.080Z,12.90
2023-05-01T09:17:43.421Z,12.90
2023-05-01T09:20:10.670Z,12.80
2023-05-01T09:22:37.493Z,12.90
2023-05-01T09:25:07.017Z,12.90
2023-05-01T09:27:37.583Z,12.70
2023-05-01T09:30:06.568Z,12.70
2023-05-01T09:32:33.565Z,12.70
2023-05-01T09:35:14.040Z,12.80
2023-05-01T09:37:41.070Z,12.90
2023-05-01T09:40:12.122Z,13.00
2023-05-01T09:42:39.854Z,13.10
2023-05-01T09:45:18.949Z,13.10
2023-05-01T09:47:46.412Z,13.10
2023-05-01T09:50:34.900Z,13.30
2023-05-01T09:53:02.743Z,13.40
2023-05-01T09:55:29.511Z,13.50
2023-05-01T09:57:56.274Z,13.60
2023-05-01T10:00:23.092Z,13.70
2023-05-01T10:02:50.517Z,13.70
2023-05-01T10:05:17.803Z,13.80
2023-05-01T10:08:03.829Z,13.80
2023-05-01T10:10:30.807Z,13.70
2023-05-01T10:12:59.602Z,13.80
2023-05-01T10:15:36.541Z,13.90
2023-05-01T10:18:03.411Z,14.10
2023-05-01T10:20:32.652Z,14.30
2023-05-01T10:23:03.305Z,14.50
2023-05-01T10:25:32.830Z,14.60
2023-05-01T10:28:02.392Z,14.80
2023-05-01T10:30:31.790Z,14.90
2023-05-01T10:32:59.494Z,15.20
2023-05-01T10:35:32.074Z,15.40
2023-05-01T10:38:24.045Z,15.60
2023-05-01T10:40:51.265Z,15.80
2023-05-01T10:43:18.103Z,16.00
2023-05-01T10:45:47.811Z,16.10
2023-05-01T10:48:47.777Z,16.20
2023-05-01T10:51:15.625Z,16.30
2023-05-01T10:53:42.893Z,16.60
2023-05-01T10:56:23.916Z,16.90
2023-05-01T10:58:53.452Z,17.30
2023-05-01T11:01:41.417Z,17.80
2023-05-01T11:04:27.172Z,18.60
2023-05-01T11:07:06.029Z,19.40
2023-05-01T11:09:49.314Z,20.30
2023-05-01T11:12:36.820Z,21.20
2023-05-01T11:15:05.523Z,21.90
2023-05-01T11:17:41.725Z,23.60
2023-05-01T11:20:40.062Z,25.40
2023-05-01T11:23:09.375Z,26.50
2023-05-01T11:25:38.308Z,28.10
2023-05-01T11:28:07.280Z,28.90
2023-05-01T11:30:39.540Z,29.80
2023-05-01T11:33:09.140Z,30.80
2023-05-01T11:35:39.367Z,31.10
2023-05-01T11:38:06.138Z,31.70
2023-05-01T11:40:34.460Z,32.50
2023-05-01T11:43:04.128Z,33.00
2023-05-01T11:45:31.493Z,33.20
2023-05-01T11:47:59.964Z,33.80
2023-05-01T11:50:33.121Z,33.60
2023-05-01T11:52:59.896Z,32.80
2023-05-01T11:55:36.155Z,31.40
2023-05-01T11:58:05.061Z,30.00
2023-05-01T12:00:39.244Z,28.90
2023-05-01T12:03:10.494Z,27.80
2023-05-01T12:05:42.611Z,26.80
2023-05-01T12:08:13.165Z,25.40
2023-05-01T12:10:42.153Z,24.30
2023-05-01T12:13:09.966Z,23.40
2023-05-01T12:15:37.943Z,22.60
2023-05-01T12:18:08.014Z,21.80
2023-05-01T12:20:41.971Z,21.30
2023-05-01T12:23:12.867Z,20.90
2023-05-01T12:25:40.809Z,20.40
2023-05-01T12:28:14.621Z,20.10
2023-05-01T12:30:42.412Z,19.80
2023-05-01T12:33:30.222Z,19.70
2023-05-01T12:36:02.417Z,19.60
2023-05-01T12:38:29.335Z,19.60
2023-05-01T12:40:59.778Z,19.60
2023-05-01T12:43:32.962Z,19.60
2023-05-01T12:45:59.836Z,19.60
2023-05-01T12:48:28.885Z,19.50
2023-05-01T12:50:55.910Z,19.50
2023-05-01T12:53:27.789Z,19.40
2023-05-01T12:55:56.280Z,19.50
2023-05-01T12:58:23.305Z,19.50
2023-05-01T13:00:54.783Z,19.60
2023-05-01T13:03:28.416Z,19.60
2023-05-01T13:05:57.645Z,19.60
2023-05-01T13:08:29.298Z,19.60
2023-05-01T13:10:59.646Z,19.50
2023-05-01T13:13:37.849Z,19.50
2023-05-01T13:16:12.842Z,19.40
2023-05-01T13:18:49.576Z,19.50
2023-05-01T13:21:19.740Z,19.50
2023-05-01T13:24:02.056Z,19.50
2023-05-01T13:26:35.220Z,19.60
2023-05-01T13:29:03.676Z,19.60
2023-05-01T13:31:30.567Z,19.70
2023-05-01T13:34:03.228Z,19.80
2023-05-01T13:36:33.519Z,19.70
2023-05-01T13:39:00.373Z,19.70
2023-05-01T13:41:30.526Z,19.70
2023-05-01T13:43:57.527Z,19.70
2023-05-01T13:46:25.123Z,19.60
2023-05-01T13:48:51.990Z,19.60
2023-05-01T13:51:24.633Z,19.70
2023-05-01T13:53:56.358Z,19.80
2023-05-01T13:56:23.221Z,19.90
2023-05-01T13:58:50.712Z,19.90
2023-05-01T14:01:21.419Z,20.00
2023-05-01T14:03:50.811Z,20.10
2023-05-01T14:06:19.155Z,20.00
2023-05-01T14:08:47.002Z,20.10
2023-05-01T14:11:14.256Z,20.20
2023-05-01T14:13:44.926Z,20.30
2023-05-01T14:16:23.585Z,20.40
2023-05-01T14:18:54.522Z,20.50
2023-05-01T14:21:22.749Z,20.60
2023-05-01T14:23:49.626Z,20.90
2023-05-01T14:26:22.053Z,21.50
2023-05-01T14:28:49.005Z,22.60
2023-05-01T14:31:21.604Z,24.10
2023-05-01T14:33:54.224Z,26.30
2023-05-01T14:36:23.297Z,28.20
2023-05-01T14:38:53.167Z,28.50
2023-05-01T14:41:19.959Z,27.60
2023-05-01T14:43:47.121Z,26.30
2023-05-01T14:46:14.952Z,25.00
2023-05-01T14:48:42.184Z,24.00
2023-05-01T14:51:12.629Z,23.10
2023-05-01T14:53:42.524Z,22.30
2023-05-01T14:56:09.332Z,21.70
2023-05-01T14:58:36.381Z,21.30
2023-05-01T15:01:03.291Z,20.90
2023-05-01T15:03:40.842Z,20.60
2023-05-01T15:06:10.761Z,20.30
2023-05-01T15:08:38.298Z,20.10
2023-05-01T15:11:09.885Z,19.80
2023-05-01T15:13:36.696Z,19.60
2023-05-01T15:16:06.047Z,19.50
2023-05-01T15:18:34.588Z,19.30
2023-05-01T15:21:01.565Z,19.30
2023-05-01T15:23:28.433Z,19.20
2023-05-01T15:25:55.355Z,19.10
2023-05-01T15:28:22.570Z,19.00
2023-05-01T15:30:52.032Z,19.00
2023-05-01T15:33:21.318Z,18.80
2023-05-01T15:35:48.939Z,18.80
2023-05-01T15:38:15.773Z,18.70
2023-05-01T15:40:45.930Z,18.70
2023-05-01T15:43:12.768Z,18.60
2023-05-01T15:45:43.749Z,18.50
2023-05-01T15:48:11.821Z,18.50
2023-05-01T15:50:38.713Z,18.50
2023-05-01T15:53:07.850Z,18.50
2023-05-01T15:55:34.760Z,18.40
2023-05-01T15:58:02.782Z,18.40
2023-05-01T16:00:32.879Z,18.40
2023-05-01T16:03:01.496Z,18.40
2023-05-01T16:05:30.480Z,18.30
2023-05-01T16:08:02.486Z,18.20
2023-05-01T16:10:29.327Z,18.10
2023-05-01T16:12:58.188Z,18.00
2023-05-01T16:15:27.203Z,18.00
2023-05-01T16:17:55.077Z,18.00
2023-05-01T16:20:21.992Z,18.00
2023-05-01T16:22:52.004Z,17.90
2023-05-01T16:25:18.975Z,17.80
2023-05-01T16:27:48.374Z,17.80
2023-05-01T16:30:15.280Z,17.80
2023-05-01T16:32:42.424Z,17.70
2023-05-01T16:35:17.447Z,17.70
2023-05-01T16:37:44.221Z,17.70
2023-05-01T16:40:17.871Z,17.60
2023-05-01T16:42:54.364Z,17.70
2023-05-01T16:45:21.574Z,17.70
2023-05-01T16:47:48.533Z,17.70
2023-05-01T16:50:17.903Z,17.70
2023-05-01T16:52:44.666Z,17.60
2023-05-01T16:55:13.883Z,17.50
2023-05-01T16:57:42.403Z,17.50
2023-05-01T17:00:14.752Z,17.40
2023-05-01T17:02:41.600Z,17.30
2023-05-01T17:05:08.757Z,17.30
2023-05-01T17:07:35.624Z,17.30
2023-05-01T17:10:05.926Z,17.30
2023-05-01T17:12:35.172Z,17.20
2023-05-01T17:15:01.925Z,17.20
2023-05-01T17:17:30.951Z,17.20
2023-05-01T17:19:57.920Z,17.10
2023-05-01T17:22:25.840Z,17.10
2023-05-01T17:24:53.424Z,17.00
2023-05-01T17:27:20.231Z,17.00
2023-05-01T17:29:46.979Z,17.00
2023-05-01T17:32:16.003Z,17.00
2023-05-01T17:34:52.841Z,17.00
2023-05-01T17:37:21.812Z,17.00
2023-05-01T17:39:50.762Z,17.00
2023-05-01T17:42:17.482Z,16.90
2023-05-01T17:44:44.362Z,16.90
2023-05-01T17:47:11.115Z,16.80
2023-05-01T17:49:40.269Z,16.80
2023-05-01T17:52:07.018Z,16.70
2023-05-01T17:54:33.851Z,16.70
2023-05-01T17:57:03.002Z,16.70
2023-05-01T17:59:30.916Z,16.70
2023-05-01T18:02:00.012Z,16.60
2023-05-01T18:04:27.005Z,16.50
2023-05-01T18:06:56.307Z,16.50
2023-05-01T18:09:25.679Z,16.40
2023-05-01T18:11:52.420Z,16.30
2023-05-01T18:14:19.233Z,16.30
2023-05-01T18:16:46.589Z,16.30
2023-05-01T18:19:13.490Z,16.30
2023-05-01T18:21:40.282Z,16.30
2023-05-01T18:24:07.075Z,16.30
2023-05-01T18:26:36.473Z,16.30
2023-05-01T18:29:05.418Z,16.30
2023-05-01T18:31:35.905Z,16.30
2023-05-01T18:34:04.895Z,16.20
2023-05-01T18:36:34.005Z,16.20
2023-05-01T18:39:02.995Z,16.20
2023-05-01T18:41:30.104Z,16.20
2023-05-01T18:43:58.149Z,16.10
2023-05-01T18:46:25.075Z,16.00
2023-05-01T18:48:51.865Z,16.00
2023-05-01T18:51:18.687Z,16.00
2023-05-01T18:53:45.500Z,15.90
2023-05-01T18:56:12.388Z,15.80
2023-05-01T18:58:39.970Z,15.80
2023-05-01T19:01:06.909Z,15.70
2023-05-01T19:03:36.193Z,15.70
2023-05-01T19:06:03.106Z,15.60
2023-05-01T19:08:32.155Z,15.70
2023-05-01T19:10:58.973Z,15.60
2023-05-01T19:13:25.744Z,15.60
2023-05-01T19:15:53.520Z,15.60
2023-05-01T19:18:20.325Z,15.50
2023-05-01T19:20:49.598Z,15.50
2023-05-01T19:23:18.852Z,15.50
2023-05-01T19:25:45.639Z,15.50
2023-05-01T19:28:12.387Z,15.40
2023-05-01T19:30:41.774Z,15.40
2023-05-01T19:33:08.781Z,15.30
2023-05-01T19:35:36.259Z,15.30
2023-05-01T19:38:05.494Z,15.20
2023-05-01T19:40:32.417Z,15.20
2023-05-01T19:42:59.207Z,15.20
2023-05-01T19:45:26.371Z,15.10
2023-05-01T19:47:53.447Z,15.10
2023-05-01T19:50:20.363Z,15.00
2023-05-01T19:52:48.243Z,14.90
2023-05-01T19:55:23.613Z,14.90
2023-05-01T19:57:51.916Z,14.80
2023-05-01T20:00:21.544Z,14.70
2023-05-01T20:02:48.606Z,14.70
2023-05-01T20:05:17.679Z,14.70
2023-05-01T20:07:44.491Z,14.60
2023-05-01T20:10:13.940Z,14.50
2023-05-01T20:12:42.109Z,14.50
2023-05-01T20:15:09.430Z,14.40
2023-05-01T20:17:40.838Z,14.40
2023-05-01T20:20:08.106Z,14.30
2023-05-01T20:22:34.840Z,14.30
2023-05-01T20:25:01.662Z,14.30
2023-05-01T20:27:28.472Z,14.30
2023-05-01T20:29:55.258Z,14.30
2023-05-01T20:32:22.048Z,14.20
2023-05-01T20:34:48.858Z,14.20
2023-05-01T20:37:16.556Z,14.20
2023-05-01T20:39:45.523Z,14.10
2023-05-01T20:42:12.282Z,14.00
2023-05-01T20:44:39.856Z,14.00
2023-05-01T20:47:06.646Z,14.00
2023-05-01T20:49:33.707Z,13.90
2023-05-01T20:52:00.652Z,13.90
2023-05-01T20:54:32.285Z,13.90
2023-05-01T20:57:00.021Z,13.80
2023-05-01T20:59:31.955Z,13.80
2023-05-01T21:01:58.761Z,13.80
2023-05-01T21:04:27.865Z,13.70
2023-05-01T21:06:54.772Z,13.80
2023-05-01T21:09:23.737Z,13.80
2023-05-01T21:11:53.012Z,13.80
2023-05-01T21:14:19.784Z,13.70
2023-05-01T21:16:46.546Z,13.70
2023-05-01T21:19:13.250Z,13.70
2023-05-01T21:21:42.519Z,13.70
2023-05-01T21:24:09.317Z,13.80
2023-05-01T21:26:38.318Z,13.60
2023-05-01T21:29:05.025Z,13.70
2023-05-01T21:31:36.972Z,13.70
2023-05-01T21:34:03.808Z,13.70
2023-05-01T21:36:31.366Z,13.70
2023-05-01T21:39:00.155Z,13.60
2023-05-01T21:41:29.362Z,13.70
2023-05-01T21:43:58.752Z,13.60
2023-05-01T21:46:25.659Z,13.60
2023-05-01T21:48:52.520Z,13.50
2023-05-01T21:51:28.538Z,13.50
2023-05-01T21:53:55.827Z,13.50
2023-05-01T21:56:25.127Z,13.40
2023-05-01T21:58:54.025Z,13.40
2023-05-01T22:01:20.831Z,13.40
2023-05-01T22:03:50.096Z,13.40
2023-05-01T22:06:17.133Z,13.40
2023-05-01T22:08:44.104Z,13.30
2023-05-01T22:11:12.967Z,13.30
2023-05-01T22:13:41.961Z,13.30
2023-05-01T22:16:12.658Z,13.20
2023-05-01T22:18:39.628Z,13.20
2023-05-01T22:21:06.725Z,13.20
2023-05-01T22:23:33.480Z,13.10
2023-05-01T22:26:05.137Z,13.10
2023-05-01T22:28:34.297Z,13.00
2023-05-01T22:31:01.101Z,13.00
2023-05-01T22:33:28.056Z,12.90
2023-05-01T22:35:54.819Z,12.90
2023-05-01T22:38:21.543Z,12.80
2023-05-01T22:40:53.178Z,12.80
2023-05-01T22:43:19.940Z,12.70
2023-05-01T22:45:46.720Z,12.70
2023-05-01T22:48:13.585Z,12.60
2023-05-01T22:50:42.737Z,12.60
2023-05-01T22:53:09.796Z,12.60
2023-05-01T22:55:37.897Z,12.50
2023-05-01T22:58:04.662Z,12.50
2023-05-01T23:00:31.456Z,12.50
2023-05-01T23:03:00.097Z,12.40
2023-05-01T23:05:29.368Z,12.30
2023-05-01T23:07:56.114Z,12.40
2023-05-01T23:10:23.907Z,12.40
2023-05-01T23:12:50.660Z,12.30
2023-05-01T23:15:21.668Z,12.30
2023-05-01T23:17:48.437Z,12.30
2023-05-01T23:20:22.553Z,12.20
2023-05-01T23:22:54.248Z,12.10
2023-05-01T23:25:23.163Z,12.00
2023-05-01T23:27:51.473Z,12.10
2023-05-01T23:30:23.381Z,12.10
2023-05-01T23:32:52.445Z,12.10
2023-05-01T23:35:20.793Z,12.00
2023-05-01T23:37:47.765Z,12.00
2023-05-01T23:40:14.555Z,11.90
2023-05-01T23:42:41.319Z,11.90
2023-05-01T23:45:08.457Z,11.90
2023-05-01T23:47:37.630Z,11.80
2023-05-01T23:50:04.946Z,11.80
2023-05-01T23:52:36.492Z,11.80
2023-05-01T23:55:03.357Z,11.70
2023-05-01T23:57:30.155Z,11.70
2023-05-01T23:59:56.992Z,11.70
